createdAt,value
2018-06-27T00:00:00.986Z,14.20
2018-06-27T00:02:29.131Z,14.30
2018-06-27T00:04:57.348Z,14.20
2018-06-27T00:07:26.560Z,14.20
2018-06-27T00:09:54.635Z,14.20
2018-06-27T00:12:22.959Z,14.20
2018-06-27T00:14:51.778Z,14.20
2018-06-27T00:17:20.584Z,14.10
2018-06-27T00:19:48.707Z,14.00
2018-06-27T00:22:24.905Z,14.00
2018-06-27T00:24:55.277Z,13.90
2018-06-27T00:27:24.011Z,13.90
2018-06-27T00:29:52.131Z,13.90
2018-06-27T00:32:20.132Z,14.00
2018-06-27T00:34:48.726Z,13.90
2018-06-27T00:37:18.913Z,13.90
2018-06-27T00:39:47.703Z,13.80
2018-06-27T00:42:15.734Z,13.90
2018-06-27T00:44:43.739Z,13.90
2018-06-27T00:47:12.445Z,13.90
2018-06-27T00:49:41.538Z,13.80
2018-06-27T00:52:11.502Z,13.80
2018-06-27T00:54:39.646Z,13.70
2018-06-27T00:57:07.936Z,13.60
2018-06-27T00:59:36.013Z,13.60
2018-06-27T01:02:06.026Z,13.70
2018-06-27T01:04:34.253Z,13.60
2018-06-27T01:07:03.083Z,13.60
2018-06-27T01:09:32.694Z,13.60
2018-06-27T01:12:01.255Z,13.60
2018-06-27T01:14:29.328Z,13.60
2018-06-27T01:16:59.058Z,13.60
2018-06-27T01:19:27.164Z,13.60
2018-06-27T01:21:55.996Z,13.60
2018-06-27T01:24:24.463Z,13.50
2018-06-27T01:26:52.767Z,13.40
2018-06-27T01:29:20.838Z,13.40
2018-06-27T01:31:49.127Z,13.30
2018-06-27T01:34:18.486Z,13.30
2018-06-27T01:36:46.675Z,13.40
2018-06-27T01:39:14.963Z,13.40
2018-06-27T01:41:43.345Z,13.20
2018-06-27T01:44:12.349Z,13.10
2018-06-27T01:46:42.594Z,13.10
2018-06-27T01:49:13.659Z,12.90
2018-06-27T01:51:42.198Z,12.90
2018-06-27T01:54:11.789Z,12.80
2018-06-27T01:56:40.665Z,12.80
2018-06-27T01:59:08.836Z,12.70
2018-06-27T02:01:37.010Z,12.70
2018-06-27T02:04:05.914Z,12.70
2018-06-27T02:06:34.787Z,12.70
2018-06-27T02:09:04.317Z,12.60
2018-06-27T02:11:32.946Z,12.70
2018-06-27T02:14:01.118Z,12.80
2018-06-27T02:16:29.839Z,12.80
2018-06-27T02:18:59.473Z,12.80
2018-06-27T02:21:28.728Z,12.70
2018-06-27T02:23:57.172Z,12.70
2018-06-27T02:28:55.482Z,12.70
2018-06-27T02:31:23.550Z,12.60
2018-06-27T02:33:51.942Z,12.50
2018-06-27T02:36:20.418Z,12.60
2018-06-27T02:38:51.132Z,12.60
2018-06-27T02:41:21.750Z,12.60
2018-06-27T02:46:19.206Z,12.50
2018-06-27T02:48:49.710Z,12.50
2018-06-27T02:51:17.810Z,12.50
2018-06-27T02:53:47.046Z,12.50
2018-06-27T02:56:15.118Z,12.60
2018-06-27T02:58:45.779Z,12.70
2018-06-27T03:01:14.020Z,12.60
2018-06-27T03:03:42.024Z,12.60
2018-06-27T03:06:10.114Z,12.50
2018-06-27T03:08:39.273Z,12.50
2018-06-27T03:11:07.385Z,12.50
2018-06-27T03:13:36.225Z,12.50
2018-06-27T03:16:05.038Z,12.50
2018-06-27T03:18:33.159Z,12.60
2018-06-27T03:21:01.764Z,12.70
2018-06-27T03:23:29.867Z,12.70
2018-06-27T03:25:59.525Z,12.70
2018-06-27T03:28:27.709Z,12.60
2018-06-27T03:30:55.819Z,12.60
2018-06-27T03:33:25.085Z,12.60
2018-06-27T03:35:53.642Z,12.60
2018-06-27T03:38:22.734Z,12.50
2018-06-27T03:40:50.758Z,12.60
2018-06-27T03:43:18.777Z,12.60
2018-06-27T03:45:46.893Z,12.60
2018-06-27T03:48:15.006Z,12.60
2018-06-27T03:50:44.084Z,12.60
2018-06-27T03:53:12.362Z,12.60
2018-06-27T03:55:41.674Z,12.60
2018-06-27T03:58:09.967Z,12.60
2018-06-27T04:00:38.138Z,12.60
2018-06-27T04:03:06.730Z,12.60
2018-06-27T04:05:34.739Z,12.60
2018-06-27T04:08:03.331Z,12.70
2018-06-27T04:10:31.398Z,12.70
2018-06-27T04:12:59.546Z,12.70
2018-06-27T04:15:27.718Z,12.70
2018-06-27T04:17:55.793Z,12.80
2018-06-27T04:20:23.817Z,12.90
2018-06-27T04:22:52.174Z,13.00
2018-06-27T04:25:20.314Z,12.90
2018-06-27T04:27:48.515Z,12.90
2018-06-27T04:30:17.208Z,12.80
2018-06-27T04:32:45.376Z,12.80
2018-06-27T04:35:19.508Z,12.80
2018-06-27T04:37:47.660Z,12.80
2018-06-27T04:40:15.775Z,12.90
2018-06-27T04:42:44.461Z,12.90
2018-06-27T04:45:12.791Z,12.90
2018-06-27T04:47:41.102Z,12.90
2018-06-27T04:50:10.492Z,13.00
2018-06-27T04:52:40.646Z,13.10
2018-06-27T04:55:08.917Z,13.20
2018-06-27T04:57:36.929Z,13.20
2018-06-27T05:00:05.131Z,13.30
2018-06-27T05:02:33.220Z,13.30
2018-06-27T05:05:01.335Z,13.30
2018-06-27T05:07:29.560Z,13.30
2018-06-27T05:09:58.848Z,13.30
2018-06-27T05:12:27.038Z,13.40
2018-06-27T05:14:55.253Z,13.50
2018-06-27T05:17:23.344Z,13.50
2018-06-27T05:19:51.636Z,13.70
2018-06-27T05:22:19.748Z,13.80
2018-06-27T05:24:48.030Z,13.80
2018-06-27T05:27:16.202Z,13.90
2018-06-27T05:29:47.735Z,13.90
2018-06-27T05:32:15.797Z,14.00
2018-06-27T05:34:44.088Z,14.00
2018-06-27T05:37:12.222Z,14.00
2018-06-27T05:39:40.365Z,14.00
2018-06-27T05:42:08.529Z,14.10
2018-06-27T05:44:36.534Z,14.10
2018-06-27T05:47:05.242Z,14.10
2018-06-27T05:49:34.690Z,14.20
2018-06-27T05:52:02.879Z,14.20
2018-06-27T05:54:30.968Z,14.20
2018-06-27T05:56:59.048Z,14.30
2018-06-27T05:59:28.503Z,14.50
2018-06-27T06:01:56.522Z,14.50
2018-06-27T06:04:25.705Z,14.60
2018-06-27T06:06:54.247Z,14.60
2018-06-27T06:09:22.301Z,14.80
2018-06-27T06:11:50.894Z,14.90
2018-06-27T06:14:20.580Z,15.10
2018-06-27T06:16:49.364Z,15.30
2018-06-27T06:19:17.950Z,15.50
2018-06-27T06:21:50.222Z,15.60
2018-06-27T06:24:19.030Z,15.60
2018-06-27T06:26:47.751Z,15.70
2018-06-27T06:29:16.605Z,15.90
2018-06-27T06:31:44.702Z,16.10
2018-06-27T06:34:12.722Z,16.30
2018-06-27T06:36:41.420Z,16.40
2018-06-27T06:39:09.837Z,16.90
2018-06-27T06:41:38.238Z,17.10
2018-06-27T06:44:06.890Z,17.70
2018-06-27T06:46:35.058Z,18.10
2018-06-27T06:49:03.164Z,18.80
2018-06-27T06:51:32.053Z,20.40
2018-06-27T06:54:00.152Z,21.90
2018-06-27T06:56:28.399Z,22.80
2018-06-27T06:58:56.544Z,23.60
2018-06-27T07:01:24.694Z,24.50
2018-06-27T07:03:52.714Z,24.60
2018-06-27T07:06:20.942Z,23.60
2018-06-27T07:08:49.927Z,24.10
2018-06-27T07:11:18.349Z,24.70
2018-06-27T07:13:46.234Z,25.70
2018-06-27T07:16:15.043Z,25.50
2018-06-27T07:18:43.271Z,24.90
2018-06-27T07:21:11.394Z,24.20
2018-06-27T07:23:40.365Z,24.30
2018-06-27T07:26:08.582Z,26.00
2018-06-27T07:28:38.124Z,25.80
2018-06-27T07:31:06.125Z,25.70
2018-06-27T07:33:34.209Z,26.20
2018-06-27T07:36:02.490Z,25.80
2018-06-27T07:38:30.659Z,25.20
2018-06-27T07:40:59.118Z,24.60
2018-06-27T07:43:28.597Z,23.40
2018-06-27T07:45:56.642Z,25.00
2018-06-27T07:48:25.855Z,25.40
2018-06-27T07:50:54.077Z,26.70
2018-06-27T07:53:22.169Z,27.20
2018-06-27T07:55:51.166Z,25.70
2018-06-27T07:58:22.043Z,25.00
2018-06-27T08:00:50.738Z,25.30
2018-06-27T08:03:25.560Z,26.50
2018-06-27T08:05:53.797Z,26.30
2018-06-27T08:08:23.014Z,27.30
2018-06-27T08:10:51.748Z,28.40
2018-06-27T08:13:19.902Z,27.80
2018-06-27T08:15:50.030Z,26.50
2018-06-27T08:18:20.093Z,26.90
2018-06-27T08:20:49.327Z,27.20
2018-06-27T08:23:17.430Z,26.30
2018-06-27T08:25:52.095Z,26.60
2018-06-27T08:28:23.094Z,27.70
2018-06-27T08:30:51.341Z,28.60
2018-06-27T08:33:19.508Z,28.70
2018-06-27T08:35:47.645Z,29.40
2018-06-27T08:38:15.892Z,28.10
2018-06-27T08:40:45.008Z,27.50
2018-06-27T08:43:14.329Z,26.30
2018-06-27T08:45:42.628Z,25.50
2018-06-27T08:48:10.876Z,25.30
2018-06-27T08:50:38.908Z,26.80
2018-06-27T08:53:07.156Z,27.90
2018-06-27T08:55:35.398Z,26.40
2018-06-27T08:58:04.781Z,24.80
2018-06-27T09:00:33.858Z,24.60
2018-06-27T09:03:01.899Z,24.10
2018-06-27T09:05:30.030Z,25.00
2018-06-27T09:07:58.683Z,25.50
2018-06-27T09:10:27.079Z,26.40
2018-06-27T09:12:55.346Z,25.50
2018-06-27T09:15:23.632Z,24.90
2018-06-27T09:17:52.100Z,24.50
2018-06-27T09:20:20.191Z,24.50
2018-06-27T09:22:48.468Z,24.60
2018-06-27T09:25:16.599Z,25.20
2018-06-27T09:27:45.245Z,26.90
2018-06-27T09:30:14.192Z,27.60
2018-06-27T09:32:52.519Z,26.60
2018-06-27T09:35:21.214Z,25.90
2018-06-27T09:37:49.328Z,25.60
2018-06-27T09:40:24.098Z,26.20
2018-06-27T09:42:52.718Z,25.90
2018-06-27T09:45:22.296Z,25.90
2018-06-27T09:47:51.999Z,26.40
2018-06-27T09:50:20.176Z,27.10
2018-06-27T09:52:48.527Z,26.90
2018-06-27T09:55:16.541Z,27.30
2018-06-27T09:57:45.435Z,26.70
2018-06-27T10:00:19.366Z,27.30
2018-06-27T10:02:47.643Z,25.60
2018-06-27T10:05:17.911Z,24.70
2018-06-27T10:07:47.858Z,23.90
2018-06-27T10:10:15.890Z,24.20
2018-06-27T10:12:44.895Z,22.60
2018-06-27T10:15:14.294Z,23.20
2018-06-27T10:17:43.579Z,23.60
2018-06-27T10:20:12.190Z,22.90
2018-06-27T10:22:41.324Z,23.40
2018-06-27T10:25:14.109Z,23.70
2018-06-27T10:27:44.936Z,23.40
2018-06-27T10:30:15.994Z,23.30
2018-06-27T10:32:44.100Z,23.50
2018-06-27T10:35:23.068Z,23.00
2018-06-27T10:37:53.325Z,22.90
2018-06-27T10:40:25.886Z,23.20
2018-06-27T10:42:55.269Z,23.20
2018-06-27T10:45:23.998Z,23.80
2018-06-27T10:47:53.812Z,22.90
2018-06-27T10:50:24.324Z,22.30
2018-06-27T10:52:53.991Z,22.30
2018-06-27T10:55:23.999Z,22.10
2018-06-27T10:57:53.178Z,22.10
2018-06-27T11:00:21.467Z,21.90
2018-06-27T11:02:49.602Z,21.80
2018-06-27T11:05:18.272Z,23.00
2018-06-27T11:07:47.563Z,22.90
2018-06-27T11:10:16.665Z,22.90
2018-06-27T11:12:45.537Z,22.30
2018-06-27T11:15:15.252Z,22.50
2018-06-27T11:17:43.442Z,22.90
2018-06-27T11:20:11.518Z,23.00
2018-06-27T11:22:39.821Z,23.20
2018-06-27T11:25:08.190Z,23.10
2018-06-27T11:27:36.666Z,22.70
2018-06-27T11:30:05.413Z,23.00
2018-06-27T11:32:33.582Z,22.90
2018-06-27T11:35:02.770Z,22.90
2018-06-27T11:37:30.904Z,23.20
2018-06-27T11:39:59.431Z,22.50
2018-06-27T11:42:28.096Z,23.00
2018-06-27T11:44:57.462Z,23.50
2018-06-27T11:47:25.720Z,23.40
2018-06-27T11:49:54.079Z,23.20
2018-06-27T11:52:22.664Z,23.10
2018-06-27T11:54:56.199Z,23.00
2018-06-27T11:57:40.007Z,23.40
2018-06-27T12:00:08.800Z,22.60
2018-06-27T12:02:42.069Z,22.60
2018-06-27T12:05:12.745Z,22.20
2018-06-27T12:07:41.617Z,23.00
2018-06-27T12:10:09.997Z,23.50
2018-06-27T12:12:38.347Z,23.80
2018-06-27T12:15:10.161Z,23.40
2018-06-27T12:17:40.959Z,24.10
2018-06-27T12:20:10.263Z,24.20
2018-06-27T12:22:40.697Z,23.90
2018-06-27T12:25:10.716Z,22.80
2018-06-27T12:27:38.874Z,22.30
2018-06-27T12:30:13.912Z,22.80
2018-06-27T12:32:43.523Z,23.00
2018-06-27T12:35:15.437Z,23.90
2018-06-27T12:37:43.935Z,23.90
2018-06-27T12:40:12.616Z,23.40
2018-06-27T12:42:42.706Z,23.80
2018-06-27T12:45:11.868Z,23.90
2018-06-27T12:47:42.543Z,24.20
2018-06-27T12:50:10.890Z,24.30
2018-06-27T12:52:39.082Z,23.80
2018-06-27T12:55:12.466Z,23.40
2018-06-27T12:57:41.375Z,23.50
2018-06-27T13:00:10.238Z,23.00
2018-06-27T13:02:38.605Z,23.40
2018-06-27T13:05:12.254Z,23.80
2018-06-27T13:07:41.238Z,23.40
2018-06-27T13:10:11.366Z,24.00
2018-06-27T13:12:39.900Z,24.30
2018-06-27T13:15:08.179Z,24.30
2018-06-27T13:17:38.294Z,24.50
2018-06-27T13:20:06.782Z,24.40
2018-06-27T13:22:36.092Z,23.30
2018-06-27T13:25:04.359Z,23.50
2018-06-27T13:27:32.685Z,24.00
2018-06-27T13:30:07.278Z,24.00
2018-06-27T13:32:42.191Z,24.80
2018-06-27T13:35:10.470Z,24.30
2018-06-27T13:37:41.649Z,23.80
2018-06-27T13:40:10.347Z,23.10
2018-06-27T13:42:53.625Z,23.40
2018-06-27T13:45:23.835Z,23.60
2018-06-27T13:47:51.946Z,23.50
2018-06-27T13:50:22.261Z,23.80
2018-06-27T13:52:56.779Z,24.30
2018-06-27T13:55:25.839Z,25.00
2018-06-27T13:57:55.433Z,25.20
2018-06-27T14:00:23.759Z,24.20
2018-06-27T14:02:51.909Z,24.00
2018-06-27T14:05:21.369Z,24.10
2018-06-27T14:07:51.373Z,23.70
2018-06-27T14:10:19.844Z,23.60
2018-06-27T14:12:51.645Z,23.30
2018-06-27T14:15:20.398Z,23.20
2018-06-27T14:17:52.009Z,23.10
2018-06-27T14:20:23.828Z,23.30
2018-06-27T14:22:52.077Z,23.60
2018-06-27T14:27:50.470Z,23.80
2018-06-27T14:30:19.367Z,24.10
2018-06-27T14:32:48.116Z,24.10
2018-06-27T14:35:18.883Z,23.50
2018-06-27T14:37:47.735Z,23.50
2018-06-27T14:40:17.146Z,23.50
2018-06-27T14:42:46.266Z,23.00
2018-06-27T14:47:48.622Z,22.90
2018-06-27T14:50:21.790Z,23.10
2018-06-27T14:52:56.354Z,23.80
2018-06-27T14:55:26.282Z,23.90
2018-06-27T14:57:56.616Z,24.10
2018-06-27T15:00:25.247Z,24.00
2018-06-27T15:03:05.566Z,24.20
2018-06-27T15:05:35.281Z,24.30
2018-06-27T15:08:05.144Z,23.60
2018-06-27T15:10:35.640Z,23.90
2018-06-27T15:13:04.223Z,24.10
2018-06-27T15:15:35.734Z,24.10
2018-06-27T15:18:08.095Z,23.80
2018-06-27T15:20:37.216Z,23.40
2018-06-27T15:23:06.390Z,23.60
2018-06-27T15:25:35.803Z,23.70
2018-06-27T15:28:05.220Z,23.40
2018-06-27T15:30:33.703Z,23.30
2018-06-27T15:33:01.969Z,23.30
2018-06-27T15:35:31.051Z,23.30
2018-06-27T15:38:00.879Z,23.50
2018-06-27T15:40:34.362Z,23.50
2018-06-27T15:43:07.240Z,23.50
2018-06-27T15:45:36.757Z,24.10
2018-06-27T15:48:05.455Z,24.50
2018-06-27T15:50:35.245Z,24.70
2018-06-27T15:53:03.488Z,24.50
2018-06-27T15:55:31.581Z,24.00
2018-06-27T15:58:01.092Z,23.50
2018-06-27T16:00:31.824Z,23.80
2018-06-27T16:03:00.130Z,23.90
2018-06-27T16:05:28.402Z,24.00
2018-06-27T16:07:57.661Z,24.20
2018-06-27T16:10:26.583Z,24.20
2018-06-27T16:12:56.171Z,24.00
2018-06-27T16:15:24.234Z,24.10
2018-06-27T16:17:56.005Z,24.30
2018-06-27T16:22:55.522Z,23.60
2018-06-27T16:25:28.724Z,23.30
2018-06-27T16:27:58.066Z,23.10
2018-06-27T16:30:27.648Z,23.00
2018-06-27T16:32:56.562Z,22.90
2018-06-27T16:35:29.505Z,22.70
2018-06-27T16:37:59.274Z,22.70
2018-06-27T16:40:27.662Z,22.80
2018-06-27T16:42:56.503Z,22.90
2018-06-27T16:45:25.088Z,23.00
2018-06-27T16:47:53.284Z,23.30
2018-06-27T16:50:23.381Z,23.30
2018-06-27T16:52:52.992Z,23.30
2018-06-27T16:55:22.308Z,23.40
2018-06-27T16:57:50.772Z,23.30
2018-06-27T17:00:20.779Z,23.10
2018-06-27T17:02:51.103Z,22.90
2018-06-27T17:05:20.526Z,22.70
2018-06-27T17:07:51.352Z,22.90
2018-06-27T17:10:20.276Z,23.10
2018-06-27T17:12:49.048Z,22.90
2018-06-27T17:15:19.740Z,22.70
2018-06-27T17:17:48.885Z,22.80
2018-06-27T17:20:17.886Z,22.90
2018-06-27T17:22:47.184Z,22.60
2018-06-27T17:25:17.207Z,22.90
2018-06-27T17:27:48.625Z,23.10
2018-06-27T17:30:17.711Z,23.10
2018-06-27T17:32:45.899Z,22.90
2018-06-27T17:35:14.374Z,22.60
2018-06-27T17:37:43.808Z,22.20
2018-06-27T17:40:13.324Z,22.10
2018-06-27T17:42:42.217Z,22.00
2018-06-27T17:45:10.816Z,22.00
2018-06-27T17:47:39.461Z,22.00
2018-06-27T17:50:08.749Z,22.00
2018-06-27T17:52:37.875Z,22.20
2018-06-27T17:55:09.856Z,22.20
2018-06-27T18:00:10.746Z,22.10
2018-06-27T18:02:39.755Z,22.20
2018-06-27T18:05:09.840Z,22.30
2018-06-27T18:07:40.799Z,22.40
2018-06-27T18:10:15.119Z,22.40
2018-06-27T18:12:44.526Z,22.20
2018-06-27T18:15:17.450Z,22.20
2018-06-27T18:17:47.900Z,22.00
2018-06-27T18:20:18.277Z,21.80
2018-06-27T18:22:50.708Z,21.70
2018-06-27T18:25:20.437Z,21.70
2018-06-27T18:27:49.100Z,21.50
2018-06-27T18:30:19.534Z,21.50
2018-06-27T18:32:52.745Z,21.40
2018-06-27T18:35:24.531Z,21.40
2018-06-27T18:37:55.330Z,21.40
2018-06-27T18:40:32.434Z,21.50
2018-06-27T18:43:01.337Z,21.40
2018-06-27T18:45:33.304Z,21.40
2018-06-27T18:48:04.169Z,21.30
2018-06-27T18:50:35.610Z,21.30
2018-06-27T18:53:03.709Z,21.30
2018-06-27T18:55:34.110Z,21.30
2018-06-27T18:58:02.740Z,21.20
2018-06-27T19:00:31.276Z,21.20
2018-06-27T19:03:00.832Z,21.20
2018-06-27T19:05:29.281Z,21.10
2018-06-27T19:07:59.281Z,21.00
2018-06-27T19:10:42.703Z,20.90
2018-06-27T19:13:12.949Z,20.80
2018-06-27T19:15:41.630Z,20.70
2018-06-27T19:18:10.077Z,20.70
2018-06-27T19:20:44.393Z,20.60
2018-06-27T19:23:25.835Z,20.60
2018-06-27T19:26:05.426Z,20.60
2018-06-27T19:28:44.787Z,20.50
2018-06-27T19:31:15.576Z,20.40
2018-06-27T19:33:45.122Z,20.30
2018-06-27T19:36:14.107Z,20.20
2018-06-27T19:38:43.350Z,20.20
2018-06-27T19:41:16.556Z,20.10
2018-06-27T19:43:48.069Z,20.10
2018-06-27T19:46:22.478Z,20.00
2018-06-27T19:48:52.989Z,19.80
2018-06-27T19:51:21.667Z,19.90
2018-06-27T19:53:57.269Z,19.80
2018-06-27T19:56:26.575Z,19.80
2018-06-27T19:58:56.278Z,19.80
2018-06-27T20:01:27.443Z,19.70
2018-06-27T20:04:00.055Z,19.70
2018-06-27T20:06:33.081Z,19.70
2018-06-27T20:09:01.785Z,19.70
2018-06-27T20:11:32.887Z,19.60
2018-06-27T20:14:06.705Z,19.60
2018-06-27T20:16:37.234Z,19.70
2018-06-27T20:19:08.599Z,19.60
2018-06-27T20:21:38.287Z,19.50
2018-06-27T20:24:07.693Z,19.40
2018-06-27T20:26:37.175Z,19.20
2018-06-27T20:29:06.263Z,19.20
2018-06-27T20:31:39.374Z,19.10
2018-06-27T20:34:11.640Z,19.00
2018-06-27T20:36:39.707Z,18.90
2018-06-27T20:39:12.866Z,18.90
2018-06-27T20:41:41.642Z,18.90
2018-06-27T20:44:12.806Z,18.80
2018-06-27T20:46:41.775Z,18.70
2018-06-27T20:49:12.738Z,18.70
2018-06-27T20:51:42.827Z,18.60
2018-06-27T20:54:12.812Z,18.60
2018-06-27T20:56:41.167Z,18.50
2018-06-27T20:59:12.671Z,18.50
2018-06-27T21:01:42.360Z,18.50
2018-06-27T21:04:12.739Z,18.50
2018-06-27T21:06:47.619Z,18.40
2018-06-27T21:09:16.351Z,18.30
2018-06-27T21:11:49.281Z,18.30
2018-06-27T21:14:25.507Z,18.20
2018-06-27T21:16:53.853Z,18.20
2018-06-27T21:19:22.016Z,18.10
2018-06-27T21:21:51.906Z,18.10
2018-06-27T21:24:20.202Z,18.10
2018-06-27T21:26:48.655Z,18.10
2018-06-27T21:29:17.906Z,18.10
2018-06-27T21:31:47.920Z,18.10
2018-06-27T21:34:18.789Z,18.10
2018-06-27T21:36:48.431Z,18.00
2018-06-27T21:39:17.762Z,17.90
2018-06-27T21:41:47.671Z,17.90
2018-06-27T21:44:16.029Z,17.80
2018-06-27T21:46:46.199Z,17.80
2018-06-27T21:49:14.224Z,17.70
2018-06-27T21:51:43.275Z,17.60
2018-06-27T21:54:17.205Z,17.50
2018-06-27T21:56:46.458Z,17.50
2018-06-27T21:59:15.991Z,17.50
2018-06-27T22:01:45.583Z,17.40
2018-06-27T22:04:15.074Z,17.40
2018-06-27T22:06:43.598Z,17.40
2018-06-27T22:09:13.615Z,17.40
2018-06-27T22:11:43.842Z,17.30
2018-06-27T22:14:12.357Z,17.30
2018-06-27T22:16:41.241Z,17.20
2018-06-27T22:21:58.512Z,17.00
2018-06-27T22:29:24.147Z,17.00
2018-06-27T22:31:54.235Z,16.90
2018-06-27T22:34:23.214Z,16.50
2018-06-27T22:36:51.353Z,16.00
2018-06-27T22:39:19.682Z,15.80
2018-06-27T22:41:47.805Z,15.60
2018-06-27T22:44:19.134Z,15.50
2018-06-27T22:46:48.651Z,15.30
2018-06-27T22:49:16.687Z,15.30
2018-06-27T22:51:45.072Z,15.40
2018-06-27T22:54:15.101Z,15.50
2018-06-27T22:56:43.718Z,15.60
2018-06-27T22:59:12.622Z,15.70
2018-06-27T23:01:40.884Z,15.90
2018-06-27T23:04:09.992Z,16.00
2018-06-27T23:06:38.953Z,16.00
2018-06-27T23:09:09.274Z,16.00
2018-06-27T23:11:39.188Z,15.90
2018-06-27T23:14:07.422Z,15.80
2018-06-27T23:16:35.586Z,15.80
2018-06-27T23:19:03.759Z,15.80
2018-06-27T23:21:33.356Z,15.80
2018-06-27T23:24:03.804Z,15.80
2018-06-27T23:26:31.822Z,15.80
2018-06-27T23:28:59.869Z,15.70
2018-06-27T23:31:29.409Z,15.60
2018-06-27T23:34:03.791Z,15.40
2018-06-27T23:36:38.785Z,15.30
2018-06-27T23:39:09.706Z,15.40
2018-06-27T23:41:43.213Z,15.40
2018-06-27T23:44:14.212Z,15.50
2018-06-27T23:46:42.601Z,15.50
2018-06-27T23:49:10.858Z,15.50
2018-06-27T23:51:38.889Z,15.50
2018-06-27T23:54:06.964Z,15.40
2018-06-27T23:56:35.213Z,15.40
2018-06-27T23:59:03.830Z,15.30
